sensor_id;sensor_type;location;lat;lon;timestamp;P1;durP1;ratioP1;P2;durP2;ratioP2
3299;SDS011;1662;49.310;8.134;2023-01-10T00:00:30;1.10;;;1.10;;
3299;SDS011;1662;49.310;8.134;2023-01-10T00:02:59;1.20;;;1.00;;
3299;SDS011;1662;49.310;8.134;2023-01-10T00:05:25;0.87;;;0.87;;
3299;SDS011;1662;49.310;8.134;2023-01-10T00:07:51;4.40;;;1.17;;
3299;SDS011;1662;49.310;8.134;2023-01-10T00:10:17;1.07;;;1.07;;
3299;SDS011;1662;49.310;8.134;2023-01-10T00:12:42;0.90;;;0.90;;
3299;SDS011;1662;49.310;8.134;2023-01-10T00:15:27;6.10;;;0.90;;
3299;SDS011;1662;49.310;8.134;2023-01-10T00:20:32;1.03;;;0.80;;
3299;SDS011;1662;49.310;8.134;2023-01-10T00:22:58;0.80;;;0.80;;
3299;SDS011;1662;49.310;8.134;2023-01-10T00:25:24;0.70;;;0.70;;
3299;SDS011;1662;49.310;8.134;2023-01-10T00:27:51;0.80;;;0.80;;
3299;SDS011;1662;49.310;8.134;2023-01-10T00:30:39;0.80;;;0.80;;
3299;SDS011;1662;49.310;8.134;2023-01-10T00:33:05;0.80;;;0.80;;
3299;SDS011;1662;49.310;8.134;2023-01-10T00:35:34;0.87;;;0.87;;
3299;SDS011;1662;49.310;8.134;2023-01-10T00:40:30;0.80;;;0.80;;
3299;SDS011;1662;49.310;8.134;2023-01-10T00:42:57;0.80;;;0.80;;
3299;SDS011;1662;49.310;8.134;2023-01-10T00:45:43;0.80;;;0.80;;
3299;SDS011;1662;49.310;8.134;2023-01-10T00:48:09;1.00;;;0.90;;
3299;SDS011;1662;49.310;8.134;2023-01-10T00:50:36;1.37;;;1.07;;
3299;SDS011;1662;49.310;8.134;2023-01-10T00:53:02;1.37;;;1.27;;
3299;SDS011;1662;49.310;8.134;2023-01-10T00:55:27;1.30;;;1.20;;
3299;SDS011;1662;49.310;8.134;2023-01-10T01:00:11;1.00;;;1.00;;
3299;SDS011;1662;49.310;8.134;2023-01-10T01:02:37;1.13;;;1.13;;
3299;SDS011;1662;49.310;8.134;2023-01-10T01:05:03;1.10;;;1.10;;
3299;SDS011;1662;49.310;8.134;2023-01-10T01:07:31;1.17;;;1.17;;
3299;SDS011;1662;49.310;8.134;2023-01-10T01:09:59;1.53;;;1.43;;
3299;SDS011;1662;49.310;8.134;2023-01-10T01:12:43;1.23;;;1.23;;
3299;SDS011;1662;49.310;8.134;2023-01-10T01:15:08;1.30;;;1.20;;
3299;SDS011;1662;49.310;8.134;2023-01-10T01:19:07;1.50;;;1.40;;
3299;SDS011;1662;49.310;8.134;2023-01-10T01:21:33;2.03;;;1.13;;
3299;SDS011;1662;49.310;8.134;2023-01-10T01:23:58;1.30;;;1.30;;
3299;SDS011;1662;49.310;8.134;2023-01-10T01:26:27;1.20;;;1.10;;
3299;SDS011;1662;49.310;8.134;2023-01-10T01:28:52;1.25;;;1.25;;
3299;SDS011;1662;49.310;8.134;2023-01-10T01:31:18;1.20;;;1.20;;
3299;SDS011;1662;49.310;8.134;2023-01-10T01:33:43;1.07;;;1.07;;
3299;SDS011;1662;49.310;8.134;2023-01-10T01:38:20;1.30;;;1.20;;
3299;SDS011;1662;49.310;8.134;2023-01-10T01:40:46;2.70;;;1.30;;
3299;SDS011;1662;49.310;8.134;2023-01-10T01:43:24;1.43;;;1.33;;
3299;SDS011;1662;49.310;8.134;2023-01-10T01:45:56;2.80;;;1.20;;
3299;SDS011;1662;49.310;8.134;2023-01-10T01:48:37;1.40;;;1.30;;
3299;SDS011;1662;49.310;8.134;2023-01-10T01:53:37;1.77;;;1.67;;
3299;SDS011;1662;49.310;8.134;2023-01-10T01:58:44;2.85;;;1.80;;
3299;SDS011;1662;49.310;8.134;2023-01-10T02:01:12;3.43;;;2.20;;
3299;SDS011;1662;49.310;8.134;2023-01-10T02:03:39;3.03;;;1.67;;
3299;SDS011;1662;49.310;8.134;2023-01-10T02:06:09;2.13;;;1.70;;
3299;SDS011;1662;49.310;8.134;2023-01-10T02:08:35;2.40;;;1.70;;
3299;SDS011;1662;49.310;8.134;2023-01-10T02:13:32;2.07;;;1.97;;
3299;SDS011;1662;49.310;8.134;2023-01-10T02:18:40;1.93;;;1.83;;
3299;SDS011;1662;49.310;8.134;2023-01-10T02:27:38;3.00;;;2.20;;
3299;SDS011;1662;49.310;8.134;2023-01-10T02:33:09;2.00;;;2.00;;
3299;SDS011;1662;49.310;8.134;2023-01-10T02:37:38;2.30;;;1.65;;
3299;SDS011;1662;49.310;8.134;2023-01-10T02:40:20;3.13;;;2.40;;
3299;SDS011;1662;49.310;8.134;2023-01-10T02:45:16;2.90;;;2.30;;
3299;SDS011;1662;49.310;8.134;2023-01-10T02:47:53;3.88;;;2.35;;
3299;SDS011;1662;49.310;8.134;2023-01-10T03:07:20;2.90;;;2.80;;
3299;SDS011;1662;49.310;8.134;2023-01-10T03:14:44;5.13;;;2.33;;
3299;SDS011;1662;49.310;8.134;2023-01-10T03:17:12;3.03;;;1.93;;
3299;SDS011;1662;49.310;8.134;2023-01-10T03:19:43;2.27;;;2.07;;
3299;SDS011;1662;49.310;8.134;2023-01-10T03:22:13;3.57;;;2.00;;
3299;SDS011;1662;49.310;8.134;2023-01-10T03:24:40;4.63;;;2.23;;
3299;SDS011;1662;49.310;8.134;2023-01-10T03:32:39;5.40;;;2.23;;
3299;SDS011;1662;49.310;8.134;2023-01-10T03:35:06;2.30;;;2.20;;
3299;SDS011;1662;49.310;8.134;2023-01-10T03:37:34;3.50;;;2.60;;
3299;SDS011;1662;49.310;8.134;2023-01-10T03:45:46;6.00;;;2.60;;
3299;SDS011;1662;49.310;8.134;2023-01-10T03:48:17;3.63;;;2.87;;
3299;SDS011;1662;49.310;8.134;2023-01-10T03:52:09;3.50;;;2.90;;
3299;SDS011;1662;49.310;8.134;2023-01-10T03:54:38;6.37;;;3.10;;
3299;SDS011;1662;49.310;8.134;2023-01-10T03:57:07;2.73;;;2.53;;
3299;SDS011;1662;49.310;8.134;2023-01-10T03:59:38;4.10;;;2.90;;
3299;SDS011;1662;49.310;8.134;2023-01-10T04:02:06;5.07;;;3.00;;
3299;SDS011;1662;49.310;8.134;2023-01-10T04:04:32;4.90;;;3.17;;
3299;SDS011;1662;49.310;8.134;2023-01-10T04:07:00;3.17;;;2.70;;
3299;SDS011;1662;49.310;8.134;2023-01-10T04:11:35;4.93;;;3.07;;
3299;SDS011;1662;49.310;8.134;2023-01-10T04:14:03;3.70;;;3.30;;
3299;SDS011;1662;49.310;8.134;2023-01-10T04:16:29;2.53;;;2.43;;
3299;SDS011;1662;49.310;8.134;2023-01-10T04:18:57;4.20;;;3.77;;
3299;SDS011;1662;49.310;8.134;2023-01-10T04:21:22;4.17;;;2.77;;
3299;SDS011;1662;49.310;8.134;2023-01-10T04:23:48;5.43;;;3.20;;
3299;SDS011;1662;49.310;8.134;2023-01-10T04:26:13;4.10;;;3.37;;
3299;SDS011;1662;49.310;8.134;2023-01-10T04:29:47;4.73;;;2.77;;
3299;SDS011;1662;49.310;8.134;2023-01-10T04:32:12;8.00;;;2.97;;
3299;SDS011;1662;49.310;8.134;2023-01-10T04:34:38;6.17;;;3.67;;
3299;SDS011;1662;49.310;8.134;2023-01-10T04:37:03;4.57;;;3.30;;
3299;SDS011;1662;49.310;8.134;2023-01-10T04:39:29;3.17;;;2.80;;
3299;SDS011;1662;49.310;8.134;2023-01-10T04:41:57;4.43;;;3.27;;
3299;SDS011;1662;49.310;8.134;2023-01-10T04:44:23;4.10;;;2.87;;
3299;SDS011;1662;49.310;8.134;2023-01-10T04:49:30;7.33;;;3.73;;
3299;SDS011;1662;49.310;8.134;2023-01-10T04:51:56;5.63;;;3.20;;
3299;SDS011;1662;49.310;8.134;2023-01-10T04:54:22;4.07;;;2.90;;
3299;SDS011;1662;49.310;8.134;2023-01-10T04:56:48;6.60;;;2.63;;
3299;SDS011;1662;49.310;8.134;2023-01-10T04:59:14;7.33;;;3.10;;
3299;SDS011;1662;49.310;8.134;2023-01-10T05:01:39;4.20;;;3.43;;
3299;SDS011;1662;49.310;8.134;2023-01-10T05:04:05;11.37;;;3.27;;
3299;SDS011;1662;49.310;8.134;2023-01-10T05:08:57;5.70;;;2.97;;
3299;SDS011;1662;49.310;8.134;2023-01-10T05:11:23;5.17;;;3.27;;
3299;SDS011;1662;49.310;8.134;2023-01-10T05:13:49;5.90;;;2.93;;
3299;SDS011;1662;49.310;8.134;2023-01-10T05:16:15;5.07;;;2.70;;
3299;SDS011;1662;49.310;8.134;2023-01-10T05:18:41;8.83;;;3.57;;
3299;SDS011;1662;49.310;8.134;2023-01-10T05:21:07;6.83;;;3.07;;
3299;SDS011;1662;49.310;8.134;2023-01-10T05:23:34;8.23;;;3.30;;
3299;SDS011;1662;49.310;8.134;2023-01-10T05:28:08;7.53;;;2.93;;
3299;SDS011;1662;49.310;8.134;2023-01-10T05:30:33;11.40;;;3.63;;
3299;SDS011;1662;49.310;8.134;2023-01-10T05:32:59;6.07;;;3.00;;
3299;SDS011;1662;49.310;8.134;2023-01-10T05:35:27;8.80;;;3.00;;
3299;SDS011;1662;49.310;8.134;2023-01-10T05:37:53;6.00;;;3.57;;
3299;SDS011;1662;49.310;8.134;2023-01-10T05:40:18;8.50;;;3.47;;
3299;SDS011;1662;49.310;8.134;2023-01-10T05:42:44;8.63;;;3.10;;
3299;SDS011;1662;49.310;8.134;2023-01-10T05:45:49;4.30;;;3.10;;
3299;SDS011;1662;49.310;8.134;2023-01-10T05:48:15;4.40;;;2.67;;
3299;SDS011;1662;49.310;8.134;2023-01-10T05:50:41;10.30;;;3.53;;
3299;SDS011;1662;49.310;8.134;2023-01-10T05:53:07;13.13;;;3.30;;
3299;SDS011;1662;49.310;8.134;2023-01-10T05:55:33;8.33;;;3.90;;
3299;SDS011;1662;49.310;8.134;2023-01-10T05:58:01;12.33;;;3.00;;
3299;SDS011;1662;49.310;8.134;2023-01-10T06:00:27;5.20;;;2.60;;
3299;SDS011;1662;49.310;8.134;2023-01-10T06:04:32;6.20;;;3.20;;
3299;SDS011;1662;49.310;8.134;2023-01-10T06:06:57;5.07;;;3.27;;
3299;SDS011;1662;49.310;8.134;2023-01-10T06:09:25;14.53;;;3.50;;
3299;SDS011;1662;49.310;8.134;2023-01-10T06:11:53;3.57;;;3.07;;
3299;SDS011;1662;49.310;8.134;2023-01-10T06:14:19;5.63;;;3.13;;
3299;SDS011;1662;49.310;8.134;2023-01-10T06:16:45;7.30;;;3.13;;
3299;SDS011;1662;49.310;8.134;2023-01-10T06:19:11;8.77;;;4.05;;
3299;SDS011;1662;49.310;8.134;2023-01-10T06:23:00;4.05;;;3.55;;
3299;SDS011;1662;49.310;8.134;2023-01-10T06:25:28;8.05;;;3.13;;
3299;SDS011;1662;49.310;8.134;2023-01-10T06:28:00;11.40;;;4.10;;
3299;SDS011;1662;49.310;8.134;2023-01-10T06:30:26;10.57;;;3.83;;
3299;SDS011;1662;49.310;8.134;2023-01-10T06:32:54;6.87;;;3.70;;
3299;SDS011;1662;49.310;8.134;2023-01-10T06:35:28;10.05;;;3.85;;
3299;SDS011;1662;49.310;8.134;2023-01-10T06:40:31;9.05;;;4.28;;
3299;SDS011;1662;49.310;8.134;2023-01-10T06:42:56;16.07;;;5.30;;
3299;SDS011;1662;49.310;8.134;2023-01-10T06:45:24;9.10;;;3.23;;
3299;SDS011;1662;49.310;8.134;2023-01-10T06:47:50;5.67;;;3.50;;
3299;SDS011;1662;49.310;8.134;2023-01-10T06:50:15;8.37;;;3.80;;
3299;SDS011;1662;49.310;8.134;2023-01-10T06:52:41;11.13;;;3.80;;
3299;SDS011;1662;49.310;8.134;2023-01-10T06:55:07;6.03;;;3.70;;
3299;SDS011;1662;49.310;8.134;2023-01-10T06:58:57;7.47;;;4.60;;
3299;SDS011;1662;49.310;8.134;2023-01-10T07:01:23;10.30;;;5.00;;
3299;SDS011;1662;49.310;8.134;2023-01-10T07:03:48;15.10;;;4.53;;
3299;SDS011;1662;49.310;8.134;2023-01-10T07:06:14;7.17;;;3.57;;
3299;SDS011;1662;49.310;8.134;2023-01-10T07:08:43;14.10;;;5.30;;
3299;SDS011;1662;49.310;8.134;2023-01-10T07:11:13;14.27;;;4.73;;
3299;SDS011;1662;49.310;8.134;2023-01-10T07:16:24;13.35;;;5.13;;
3299;SDS011;1662;49.310;8.134;2023-01-10T07:18:50;16.00;;;4.10;;
3299;SDS011;1662;49.310;8.134;2023-01-10T07:21:16;6.80;;;3.43;;
3299;SDS011;1662;49.310;8.134;2023-01-10T07:23:48;7.43;;;4.70;;
3299;SDS011;1662;49.310;8.134;2023-01-10T07:26:14;7.33;;;4.50;;
3299;SDS011;1662;49.310;8.134;2023-01-10T07:28:43;10.97;;;5.60;;
3299;SDS011;1662;49.310;8.134;2023-01-10T07:31:09;9.95;;;5.30;;
3299;SDS011;1662;49.310;8.134;2023-01-10T07:35:50;6.80;;;5.43;;
3299;SDS011;1662;49.310;8.134;2023-01-10T07:38:15;11.43;;;4.73;;
3299;SDS011;1662;49.310;8.134;2023-01-10T07:40:43;14.10;;;4.70;;
3299;SDS011;1662;49.310;8.134;2023-01-10T07:43:09;8.00;;;4.07;;
3299;SDS011;1662;49.310;8.134;2023-01-10T07:45:37;7.47;;;3.60;;
3299;SDS011;1662;49.310;8.134;2023-01-10T07:48:03;14.73;;;3.20;;
3299;SDS011;1662;49.310;8.134;2023-01-10T07:50:31;7.57;;;4.07;;
3299;SDS011;1662;49.310;8.134;2023-01-10T07:53:47;7.10;;;2.70;;
3299;SDS011;1662;49.310;8.134;2023-01-10T07:56:13;7.57;;;3.93;;
3299;SDS011;1662;49.310;8.134;2023-01-10T07:58:41;9.83;;;4.20;;
3299;SDS011;1662;49.310;8.134;2023-01-10T08:01:06;10.30;;;3.70;;
3299;SDS011;1662;49.310;8.134;2023-01-10T08:03:32;8.40;;;3.60;;
3299;SDS011;1662;49.310;8.134;2023-01-10T08:06:05;4.70;;;4.20;;
3299;SDS011;1662;49.310;8.134;2023-01-10T08:08:35;12.10;;;4.20;;
3299;SDS011;1662;49.310;8.134;2023-01-10T08:11:03;10.97;;;5.87;;
3299;SDS011;1662;49.310;8.134;2023-01-10T08:16:29;9.90;;;4.57;;
3299;SDS011;1662;49.310;8.134;2023-01-10T08:18:55;14.90;;;5.40;;
3299;SDS011;1662;49.310;8.134;2023-01-10T08:21:21;9.50;;;4.53;;
3299;SDS011;1662;49.310;8.134;2023-01-10T08:23:46;10.73;;;4.57;;
3299;SDS011;1662;49.310;8.134;2023-01-10T08:26:12;15.37;;;4.47;;
3299;SDS011;1662;49.310;8.134;2023-01-10T08:28:37;13.00;;;4.47;;
3299;SDS011;1662;49.310;8.134;2023-01-10T08:31:04;9.40;;;3.70;;
3299;SDS011;1662;49.310;8.134;2023-01-10T08:36:03;7.57;;;3.43;;
3299;SDS011;1662;49.310;8.134;2023-01-10T08:38:29;8.90;;;3.40;;
3299;SDS011;1662;49.310;8.134;2023-01-10T08:40:55;10.43;;;3.67;;
3299;SDS011;1662;49.310;8.134;2023-01-10T08:43:22;12.03;;;4.03;;
3299;SDS011;1662;49.310;8.134;2023-01-10T08:45:50;8.10;;;3.45;;
3299;SDS011;1662;49.310;8.134;2023-01-10T08:48:16;10.03;;;3.93;;
3299;SDS011;1662;49.310;8.134;2023-01-10T08:50:41;9.20;;;4.00;;
3299;SDS011;1662;49.310;8.134;2023-01-10T08:54:15;7.13;;;4.00;;
3299;SDS011;1662;49.310;8.134;2023-01-10T08:56:40;12.50;;;3.20;;
3299;SDS011;1662;49.310;8.134;2023-01-10T08:59:06;9.33;;;4.10;;
3299;SDS011;1662;49.310;8.134;2023-01-10T09:01:32;6.53;;;4.03;;
3299;SDS011;1662;49.310;8.134;2023-01-10T09:03:58;11.77;;;5.17;;
3299;SDS011;1662;49.310;8.134;2023-01-10T09:06:23;9.47;;;4.37;;
3299;SDS011;1662;49.310;8.134;2023-01-10T09:08:52;12.53;;;4.13;;
3299;SDS011;1662;49.310;8.134;2023-01-10T09:13:52;11.73;;;6.07;;
3299;SDS011;1662;49.310;8.134;2023-01-10T09:16:17;15.47;;;4.87;;
3299;SDS011;1662;49.310;8.134;2023-01-10T09:18:43;9.60;;;4.20;;
3299;SDS011;1662;49.310;8.134;2023-01-10T09:21:11;14.50;;;5.50;;
3299;SDS011;1662;49.310;8.134;2023-01-10T09:23:37;11.30;;;4.37;;
3299;SDS011;1662;49.310;8.134;2023-01-10T09:26:04;8.77;;;3.87;;
3299;SDS011;1662;49.310;8.134;2023-01-10T09:28:32;12.53;;;5.63;;
3299;SDS011;1662;49.310;8.134;2023-01-10T09:33:35;15.93;;;5.20;;
3299;SDS011;1662;49.310;8.134;2023-01-10T09:36:01;7.00;;;3.70;;
3299;SDS011;1662;49.310;8.134;2023-01-10T09:38:27;6.13;;;3.70;;
3299;SDS011;1662;49.310;8.134;2023-01-10T09:52:46;22.73;;;9.70;;
3299;SDS011;1662;49.310;8.134;2023-01-10T09:55:24;12.53;;;4.47;;
3299;SDS011;1662;49.310;8.134;2023-01-10T09:57:54;18.37;;;5.13;;
3299;SDS011;1662;49.310;8.134;2023-01-10T10:00:23;12.00;;;4.83;;
3299;SDS011;1662;49.310;8.134;2023-01-10T10:02:57;13.87;;;4.37;;
3299;SDS011;1662;49.310;8.134;2023-01-10T10:05:24;4.90;;;3.87;;
3299;SDS011;1662;49.310;8.134;2023-01-10T10:07:55;20.40;;;5.17;;
3299;SDS011;1662;49.310;8.134;2023-01-10T10:24:40;11.73;;;3.97;;
3299;SDS011;1662;49.310;8.134;2023-01-10T10:35:14;15.43;;;7.47;;
3299;SDS011;1662;49.310;8.134;2023-01-10T10:37:50;9.13;;;4.00;;
3299;SDS011;1662;49.310;8.134;2023-01-10T10:40:20;9.73;;;4.03;;
3299;SDS011;1662;49.310;8.134;2023-01-10T10:42:48;10.03;;;3.47;;
3299;SDS011;1662;49.310;8.134;2023-01-10T10:47:52;15.73;;;4.60;;
3299;SDS011;1662;49.310;8.134;2023-01-10T10:50:31;12.10;;;4.63;;
3299;SDS011;1662;49.310;8.134;2023-01-10T10:53:02;15.90;;;4.40;;
3299;SDS011;1662;49.310;8.134;2023-01-10T10:55:32;14.97;;;5.07;;
3299;SDS011;1662;49.310;8.134;2023-01-10T10:58:01;8.43;;;4.53;;
3299;SDS011;1662;49.310;8.134;2023-01-10T11:00:28;16.27;;;4.43;;
3299;SDS011;1662;49.310;8.134;2023-01-10T11:05:45;10.57;;;4.10;;
3299;SDS011;1662;49.310;8.134;2023-01-10T11:08:13;10.40;;;3.67;;
3299;SDS011;1662;49.310;8.134;2023-01-10T11:10:42;10.53;;;4.17;;
3299;SDS011;1662;49.310;8.134;2023-01-10T11:15:43;10.07;;;4.37;;
3299;SDS011;1662;49.310;8.134;2023-01-10T11:18:12;13.80;;;4.57;;
3299;SDS011;1662;49.310;8.134;2023-01-10T11:20:49;6.53;;;3.30;;
3299;SDS011;1662;49.310;8.134;2023-01-10T11:27:23;6.13;;;3.87;;
3299;SDS011;1662;49.310;8.134;2023-01-10T11:29:57;10.97;;;4.03;;
3299;SDS011;1662;49.310;8.134;2023-01-10T11:32:39;10.10;;;4.10;;
3299;SDS011;1662;49.310;8.134;2023-01-10T11:35:36;14.63;;;4.00;;
3299;SDS011;1662;49.310;8.134;2023-01-10T11:48:48;12.83;;;4.57;;
3299;SDS011;1662;49.310;8.134;2023-01-10T11:51:17;8.50;;;4.23;;
3299;SDS011;1662;49.310;8.134;2023-01-10T11:53:50;17.87;;;5.70;;
3299;SDS011;1662;49.310;8.134;2023-01-10T11:56:34;12.10;;;5.33;;
3299;SDS011;1662;49.310;8.134;2023-01-10T12:04:12;12.90;;;4.30;;
3299;SDS011;1662;49.310;8.134;2023-01-10T12:06:43;12.90;;;5.03;;
3299;SDS011;1662;49.310;8.134;2023-01-10T12:12:00;10.73;;;3.87;;
3299;SDS011;1662;49.310;8.134;2023-01-10T12:14:31;14.40;;;5.03;;
3299;SDS011;1662;49.310;8.134;2023-01-10T12:17:00;13.93;;;4.60;;
3299;SDS011;1662;49.310;8.134;2023-01-10T12:21:44;12.00;;;3.93;;
3299;SDS011;1662;49.310;8.134;2023-01-10T12:26:50;10.73;;;3.53;;
3299;SDS011;1662;49.310;8.134;2023-01-10T12:29:22;7.77;;;3.77;;
3299;SDS011;1662;49.310;8.134;2023-01-10T12:31:51;13.87;;;3.93;;
3299;SDS011;1662;49.310;8.134;2023-01-10T12:34:19;9.93;;;3.83;;
3299;SDS011;1662;49.310;8.134;2023-01-10T12:37:07;17.90;;;5.60;;
3299;SDS011;1662;49.310;8.134;2023-01-10T12:44:43;11.47;;;4.07;;
3299;SDS011;1662;49.310;8.134;2023-01-10T12:49:53;5.33;;;3.00;;
3299;SDS011;1662;49.310;8.134;2023-01-10T12:52:28;12.77;;;3.53;;
3299;SDS011;1662;49.310;8.134;2023-01-10T12:55:19;11.03;;;4.97;;
3299;SDS011;1662;49.310;8.134;2023-01-10T12:57:50;21.47;;;4.40;;
3299;SDS011;1662;49.310;8.134;2023-01-10T13:01:36;9.97;;;3.87;;
3299;SDS011;1662;49.310;8.134;2023-01-10T13:04:11;17.00;;;5.00;;
3299;SDS011;1662;49.310;8.134;2023-01-10T13:06:43;11.33;;;3.70;;
3299;SDS011;1662;49.310;8.134;2023-01-10T13:09:16;9.90;;;3.57;;
3299;SDS011;1662;49.310;8.134;2023-01-10T13:11:48;13.20;;;5.03;;
3299;SDS011;1662;49.310;8.134;2023-01-10T13:14:44;20.50;;;3.80;;
3299;SDS011;1662;49.310;8.134;2023-01-10T13:22:38;11.07;;;3.60;;
3299;SDS011;1662;49.310;8.134;2023-01-10T13:25:04;6.97;;;3.10;;
3299;SDS011;1662;49.310;8.134;2023-01-10T13:27:33;9.37;;;3.97;;
3299;SDS011;1662;49.310;8.134;2023-01-10T13:30:02;9.13;;;3.70;;
3299;SDS011;1662;49.310;8.134;2023-01-10T13:32:29;6.30;;;3.07;;
3299;SDS011;1662;49.310;8.134;2023-01-10T13:35:12;12.90;;;4.90;;
3299;SDS011;1662;49.310;8.134;2023-01-10T13:47:51;13.93;;;3.50;;
3299;SDS011;1662;49.310;8.134;2023-01-10T13:52:46;4.47;;;2.83;;
3299;SDS011;1662;49.310;8.134;2023-01-10T13:55:20;9.07;;;3.40;;
3299;SDS011;1662;49.310;8.134;2023-01-10T13:59:13;9.23;;;3.90;;
3299;SDS011;1662;49.310;8.134;2023-01-10T14:02:25;8.33;;;3.77;;
3299;SDS011;1662;49.310;8.134;2023-01-10T14:04:55;8.27;;;3.10;;
3299;SDS011;1662;49.310;8.134;2023-01-10T14:07:48;11.40;;;3.50;;
3299;SDS011;1662;49.310;8.134;2023-01-10T14:10:18;11.57;;;3.60;;
3299;SDS011;1662;49.310;8.134;2023-01-10T14:16:51;6.33;;;3.47;;
3299;SDS011;1662;49.310;8.134;2023-01-10T14:19:22;6.63;;;3.80;;
3299;SDS011;1662;49.310;8.134;2023-01-10T14:21:59;10.70;;;3.93;;
3299;SDS011;1662;49.310;8.134;2023-01-10T14:24:27;4.50;;;3.00;;
3299;SDS011;1662;49.310;8.134;2023-01-10T14:26:59;4.80;;;3.00;;
3299;SDS011;1662;49.310;8.134;2023-01-10T14:29:28;5.27;;;2.80;;
3299;SDS011;1662;49.310;8.134;2023-01-10T14:31:57;13.73;;;3.67;;
3299;SDS011;1662;49.310;8.134;2023-01-10T14:36:03;12.70;;;3.77;;
3299;SDS011;1662;49.310;8.134;2023-01-10T14:38:34;9.10;;;4.13;;
3299;SDS011;1662;49.310;8.134;2023-01-10T14:41:05;10.33;;;3.57;;
3299;SDS011;1662;49.310;8.134;2023-01-10T14:43:41;4.77;;;3.17;;
3299;SDS011;1662;49.310;8.134;2023-01-10T14:46:24;8.03;;;3.00;;
3299;SDS011;1662;49.310;8.134;2023-01-10T14:48:55;7.90;;;3.33;;
3299;SDS011;1662;49.310;8.134;2023-01-10T14:54:00;7.50;;;4.07;;
3299;SDS011;1662;49.310;8.134;2023-01-10T14:56:38;17.00;;;4.80;;
3299;SDS011;1662;49.310;8.134;2023-01-10T15:01:49;3.57;;;3.20;;
3299;SDS011;1662;49.310;8.134;2023-01-10T15:04:17;5.90;;;3.03;;
3299;SDS011;1662;49.310;8.134;2023-01-10T15:06:49;3.50;;;3.20;;
3299;SDS011;1662;49.310;8.134;2023-01-10T15:09:18;7.30;;;4.07;;
3299;SDS011;1662;49.310;8.134;2023-01-10T15:13:26;6.27;;;3.20;;
3299;SDS011;1662;49.310;8.134;2023-01-10T15:15:54;7.60;;;3.33;;
3299;SDS011;1662;49.310;8.134;2023-01-10T15:21:00;7.23;;;3.27;;
3299;SDS011;1662;49.310;8.134;2023-01-10T15:23:33;7.97;;;3.63;;
3299;SDS011;1662;49.310;8.134;2023-01-10T15:26:00;3.30;;;3.00;;
3299;SDS011;1662;49.310;8.134;2023-01-10T15:28:28;4.67;;;3.43;;
3299;SDS011;1662;49.310;8.134;2023-01-10T15:32:08;10.97;;;4.27;;
3299;SDS011;1662;49.310;8.134;2023-01-10T15:34:36;13.03;;;5.60;;
3299;SDS011;1662;49.310;8.134;2023-01-10T15:37:06;12.63;;;4.97;;
3299;SDS011;1662;49.310;8.134;2023-01-10T15:39:44;16.53;;;3.93;;
3299;SDS011;1662;49.310;8.134;2023-01-10T15:42:11;6.57;;;4.10;;
3299;SDS011;1662;49.310;8.134;2023-01-10T15:44:40;5.93;;;3.27;;
3299;SDS011;1662;49.310;8.134;2023-01-10T15:58:12;9.10;;;4.53;;
3299;SDS011;1662;49.310;8.134;2023-01-10T16:00:47;6.70;;;3.70;;
3299;SDS011;1662;49.310;8.134;2023-01-10T16:06:00;3.87;;;3.23;;
3299;SDS011;1662;49.310;8.134;2023-01-10T16:10:05;8.13;;;5.70;;
3299;SDS011;1662;49.310;8.134;2023-01-10T16:12:49;7.43;;;3.53;;
3299;SDS011;1662;49.310;8.134;2023-01-10T16:15:36;5.57;;;3.77;;
3299;SDS011;1662;49.310;8.134;2023-01-10T16:18:05;7.93;;;4.20;;
3299;SDS011;1662;49.310;8.134;2023-01-10T16:23:01;9.03;;;3.83;;
3299;SDS011;1662;49.310;8.134;2023-01-10T16:27:56;7.10;;;4.30;;
3299;SDS011;1662;49.310;8.134;2023-01-10T16:30:23;7.33;;;4.50;;
3299;SDS011;1662;49.310;8.134;2023-01-10T16:32:54;6.40;;;3.93;;
3299;SDS011;1662;49.310;8.134;2023-01-10T16:35:21;7.07;;;4.20;;
3299;SDS011;1662;49.310;8.134;2023-01-10T16:37:53;8.03;;;4.93;;
3299;SDS011;1662;49.310;8.134;2023-01-10T16:40:25;6.50;;;4.87;;
3299;SDS011;1662;49.310;8.134;2023-01-10T16:42:57;10.00;;;4.43;;
3299;SDS011;1662;49.310;8.134;2023-01-10T16:46:24;9.50;;;4.20;;
3299;SDS011;1662;49.310;8.134;2023-01-10T16:48:49;8.07;;;3.90;;
3299;SDS011;1662;49.310;8.134;2023-01-10T16:51:26;13.77;;;4.63;;
3299;SDS011;1662;49.310;8.134;2023-01-10T16:53:54;12.70;;;4.20;;
3299;SDS011;1662;49.310;8.134;2023-01-10T16:56:21;8.00;;;4.10;;
3299;SDS011;1662;49.310;8.134;2023-01-10T16:58:51;10.60;;;3.70;;
3299;SDS011;1662;49.310;8.134;2023-01-10T17:03:20;8.47;;;3.80;;
3299;SDS011;1662;49.310;8.134;2023-01-10T17:05:48;8.23;;;4.23;;
3299;SDS011;1662;49.310;8.134;2023-01-10T17:08:17;7.60;;;4.53;;
3299;SDS011;1662;49.310;8.134;2023-01-10T17:10:44;10.53;;;4.47;;
3299;SDS011;1662;49.310;8.134;2023-01-10T17:13:17;16.10;;;8.90;;
3299;SDS011;1662;49.310;8.134;2023-01-10T17:15:52;15.40;;;9.30;;
3299;SDS011;1662;49.310;8.134;2023-01-10T17:18:18;10.33;;;5.73;;
3299;SDS011;1662;49.310;8.134;2023-01-10T17:22:33;12.10;;;7.10;;
3299;SDS011;1662;49.310;8.134;2023-01-10T17:24:58;17.80;;;7.90;;
3299;SDS011;1662;49.310;8.134;2023-01-10T17:27:24;7.30;;;6.60;;
3299;SDS011;1662;49.310;8.134;2023-01-10T17:29:50;10.93;;;7.50;;
3299;SDS011;1662;49.310;8.134;2023-01-10T17:32:15;10.33;;;6.23;;
3299;SDS011;1662;49.310;8.134;2023-01-10T17:34:43;13.20;;;7.73;;
3299;SDS011;1662;49.310;8.134;2023-01-10T17:37:09;15.37;;;5.77;;
3299;SDS011;1662;49.310;8.134;2023-01-10T17:41:43;10.83;;;5.80;;
3299;SDS011;1662;49.310;8.134;2023-01-10T17:44:11;6.27;;;4.73;;
3299;SDS011;1662;49.310;8.134;2023-01-10T17:46:37;6.83;;;4.83;;
3299;SDS011;1662;49.310;8.134;2023-01-10T17:49:03;9.10;;;5.13;;
3299;SDS011;1662;49.310;8.134;2023-01-10T17:51:29;7.73;;;5.50;;
3299;SDS011;1662;49.310;8.134;2023-01-10T17:53:55;5.43;;;4.30;;
3299;SDS011;1662;49.310;8.134;2023-01-10T17:56:20;7.13;;;5.23;;
3299;SDS011;1662;49.310;8.134;2023-01-10T17:59:57;11.47;;;5.80;;
3299;SDS011;1662;49.310;8.134;2023-01-10T18:02:23;11.17;;;5.37;;
3299;SDS011;1662;49.310;8.134;2023-01-10T18:04:48;6.07;;;3.80;;
3299;SDS011;1662;49.310;8.134;2023-01-10T18:07:14;12.43;;;4.47;;
3299;SDS011;1662;49.310;8.134;2023-01-10T18:09:39;5.93;;;4.93;;
3299;SDS011;1662;49.310;8.134;2023-01-10T18:12:05;9.67;;;6.13;;
3299;SDS011;1662;49.310;8.134;2023-01-10T18:14:31;8.60;;;5.63;;
3299;SDS011;1662;49.310;8.134;2023-01-10T18:20:07;9.93;;;4.50;;
3299;SDS011;1662;49.310;8.134;2023-01-10T18:22:33;10.37;;;5.70;;
3299;SDS011;1662;49.310;8.134;2023-01-10T18:25:18;9.27;;;6.93;;
3299;SDS011;1662;49.310;8.134;2023-01-10T18:27:44;10.13;;;7.23;;
3299;SDS011;1662;49.310;8.134;2023-01-10T18:30:16;9.63;;;7.57;;
3299;SDS011;1662;49.310;8.134;2023-01-10T18:32:43;11.47;;;7.03;;
3299;SDS011;1662;49.310;8.134;2023-01-10T18:35:09;15.60;;;5.80;;
3299;SDS011;1662;49.310;8.134;2023-01-10T18:38:34;8.67;;;4.70;;
3299;SDS011;1662;49.310;8.134;2023-01-10T18:41:02;9.97;;;5.13;;
3299;SDS011;1662;49.310;8.134;2023-01-10T18:43:30;7.90;;;5.63;;
3299;SDS011;1662;49.310;8.134;2023-01-10T18:46:00;7.10;;;6.20;;
3299;SDS011;1662;49.310;8.134;2023-01-10T18:48:30;7.47;;;4.80;;
3299;SDS011;1662;49.310;8.134;2023-01-10T18:50:59;13.27;;;7.63;;
3299;SDS011;1662;49.310;8.134;2023-01-10T18:56:04;7.47;;;5.23;;
3299;SDS011;1662;49.310;8.134;2023-01-10T18:58:31;4.43;;;4.10;;
3299;SDS011;1662;49.310;8.134;2023-01-10T19:01:05;7.93;;;3.93;;
3299;SDS011;1662;49.310;8.134;2023-01-10T19:03:32;6.90;;;4.53;;
3299;SDS011;1662;49.310;8.134;2023-01-10T19:05:59;9.03;;;5.80;;
3299;SDS011;1662;49.310;8.134;2023-01-10T19:08:25;8.13;;;4.30;;
3299;SDS011;1662;49.310;8.134;2023-01-10T19:10:51;9.40;;;4.43;;
3299;SDS011;1662;49.310;8.134;2023-01-10T19:15:45;9.30;;;5.93;;
3299;SDS011;1662;49.310;8.134;2023-01-10T19:18:14;8.47;;;4.87;;
3299;SDS011;1662;49.310;8.134;2023-01-10T19:20:41;9.90;;;5.17;;
3299;SDS011;1662;49.310;8.134;2023-01-10T19:23:06;6.80;;;6.10;;
3299;SDS011;1662;49.310;8.134;2023-01-10T19:25:32;8.90;;;5.47;;
3299;SDS011;1662;49.310;8.134;2023-01-10T19:28:02;8.17;;;4.00;;
3299;SDS011;1662;49.310;8.134;2023-01-10T19:33:10;7.67;;;4.70;;
3299;SDS011;1662;49.310;8.134;2023-01-10T19:35:38;6.67;;;3.80;;
3299;SDS011;1662;49.310;8.134;2023-01-10T19:38:04;7.37;;;3.83;;
3299;SDS011;1662;49.310;8.134;2023-01-10T19:40:29;6.17;;;3.03;;